Terminal Aerodrome Forecast
Issued by NWS

Home | Current Version | Previous Version | Text Only | Print | Product List | Glossary On
Versions: 1 2 3 4 5 6 7 8 9 10 11 12
000
FTUS46 KMTR 011126
TAFSTS
TAF
KSTS 011126Z 0112/0212 00000KT P6SM SKC
     FM011800 VRB03KT P6SM SKC
     FM012100 19011KT P6SM SKC
     FM020400 16005KT P6SM SKC
     FM021000 19003KT P6SM BKN007=

USA.gov is the U.S. government's official web portal to all federal, state and local government web resources and services.